| time (UTC) | temp F | wind direction | speed MPH | gust MPH | rain 1hr in | rain 24hr in | rain mn in | humidity % | barometer mb |
| 20260901122707 | 71 | 125 | 0.0 | 0.0 | 0.00 | 0.62 | 0.62 | 99 | 1015.1 |
| 20260901121729 | 71 | 125 | 0.0 | 0.0 | 0.00 | 0.62 | 0.62 | 99 | 1015.1 |
| 20260901120738 | 70 | 125 | 0.0 | 0.0 | 0.00 | 0.62 | 0.62 | 99 | 1015.1 |
| 20260901115752 | 70 | 125 | 0.0 | 0.0 | 0.00 | 0.61 | 0.62 | 99 | 1015.5 |
| 20260901114801 | 70 | 125 | 0.0 | 0.0 | 0.00 | 0.61 | 0.61 | 99 | 1015.4 |
| 20260901113816 | 70 | 126 | 0.0 | 0.0 | 0.00 | 0.61 | 0.61 | 99 | 1015.2 |
| 20260901112838 | 70 | 125 | 0.0 | 0.0 | 0.00 | 0.61 | 0.61 | 99 | 1014.9 |
| 20260901111901 | 70 | 125 | 0.0 | 0.0 | 0.00 | 0.61 | 0.61 | 99 | 1015.1 |
| 20260901110827 | 70 | 125 | 0.0 | 0.0 | 0.00 | 0.61 | 0.61 | 99 | 1015.2 |
| 20260901105811 | 70 | 125 | 0.0 | 0.0 | 0.00 | 0.61 | 0.61 | 99 | 1015.4 |
| 20260901075733 | 68 | 126 | 0.0 | 0.0 | 0.00 | 0.61 | 0.61 | 98 | 1015.8 |
| 20260901074732 | 68 | 125 | 0.0 | 0.0 | 0.00 | 0.61 | 0.61 | 98 | 1015.8 |
| 20260901073735 | 68 | 125 | 0.0 | 0.0 | 0.04 | 0.61 | 0.61 | 98 | 1015.9 |
| 20260901072754 | 68 | 125 | 0.0 | 0.0 | 0.06 | 0.61 | 0.61 | 98 | 1016.0 |
| 20260901071813 | 68 | 126 | 0.0 | 0.0 | 0.09 | 0.59 | 0.60 | 98 | 1016.1 |
| 20260901065708 | 68 | 125 | 0.0 | 0.0 | 0.08 | 0.58 | 0.57 | 98 | 1016.1 |
| 20260901064713 | 68 | 125 | 0.0 | 0.0 | 0.16 | 0.56 | 0.57 | 97 | 1016.1 |
| 20260901063651 | 68 | 126 | 0.0 | 0.0 | 0.13 | 0.53 | 0.54 | 97 | 1016.1 |
| 20260901060328 | 70 | 125 | 0.0 | 0.0 | 0.97 | 0.29 | 0.32 | 97 | 1016.3 |
| 20260901055259 | 70 | 125 | 0.0 | 0.0 | 0.38 | 0.21 | 0.21 | 97 | 1016.4 |
| 20260901054240 | 70 | 125 | 0.0 | 0.0 | 0.13 | 0.14 | 0.16 | 97 | 1016.5 |
| 20260901053304 | 70 | 126 | 0.0 | 0.0 | 0.15 | 0.13 | 0.13 | 97 | 1016.5 |
| 20260901052241 | 70 | 125 | 0.0 | 0.0 | 0.16 | 0.09 | 0.10 | 96 | 1016.5 |
| 20260901051233 | 70 | 125 | 0.0 | 0.0 | 0.10 | 0.06 | 0.08 | 96 | 1016.6 |
| 20260901050209 | 70 | 125 | 0.0 | 0.0 | 0.18 | 0.04 | 0.05 | 96 | 1016.7 |
| 20260901045220 | 71 | 124 | 0.0 | 0.0 | 0.19 | 0.01 | 0.02 | 95 | 1016.7 |
| 20260901041833 | 71 | 124 | 0.0 | 0.0 | 0.00 | 0.00 | 0.00 | 94 | 1016.7 |
| 20260901040856 | 71 | 124 | 0.0 | 0.0 | 0.00 | 0.00 | 0.00 | 94 | 1016.7 |
| 20260901035837 | 71 | 124 | 0.0 | 0.0 | 0.00 | 0.00 | 0.00 | 93 | 1016.7 |
| 20260901034809 | 71 | 124 | 0.0 | 0.0 | 0.00 | 0.00 | 0.00 | 92 | 1016.6 |
| 20260901033831 | 71 | 124 | 0.0 | 0.0 | 0.00 | 0.00 | 0.00 | 92 | 1016.8 |
| 20260901032842 | 71 | 124 | 0.0 | 0.0 | 0.00 | 0.00 | 0.00 | 91 | 1017.0 |
| 20260901031820 | 71 | 124 | 0.0 | 0.0 | 0.00 | 0.00 | 0.00 | 91 | 1017.1 |
| 20260901030828 | 71 | 124 | 0.0 | 0.0 | 0.00 | 0.00 | 0.00 | 90 | 1017.1 |
| 20260901025755 | 72 | 124 | 0.0 | 0.0 | 0.00 | 0.00 | 0.00 | 90 | 1017.3 |
| 20260901024732 | 72 | 124 | 0.0 | 0.0 | 0.00 | 0.00 | 0.00 | 90 | 1017.3 |
| 20260901023727 | 72 | 124 | 0.0 | 0.0 | 0.00 | 0.00 | 0.00 | 90 | 1017.4 |
| 20260901021521 | 72 | 124 | 0.0 | 0.0 | 0.00 | 0.00 | 0.00 | 89 | 1017.4 |
| 20260901020521 | 72 | 124 | 0.0 | 0.0 | 0.00 | 0.00 | 0.00 | 89 | 1017.5 |
| 20260901015455 | 72 | 123 | 0.0 | 0.0 | 0.00 | 0.00 | 0.00 | 89 | 1017.5 |
| 20260901014427 | 72 | 122 | 0.0 | 0.0 | 0.00 | 0.02 | 0.00 | 89 | 1017.4 |
| 20260901013443 | 72 | 162 | 0.0 | 0.0 | 0.00 | 0.02 | 0.00 | 89 | 1017.5 |
| 20260901012439 | 72 | 162 | 0.0 | 0.0 | 0.00 | 0.02 | 0.00 | 89 | 1017.6 |
| 20260901011408 | 72 | 162 | 0.0 | 0.0 | 0.00 | 0.02 | 0.00 | 88 | 1017.6 |
| 20260901010338 | 72 | 162 | 0.0 | 0.0 | 0.00 | 0.03 | 0.00 | 87 | 1017.5 |
| 20260901005325 | 72 | 162 | 0.0 | 0.0 | 0.00 | 0.04 | 0.00 | 87 | 1017.5 |
| 20260901004316 | 72 | 162 | 0.0 | 0.0 | 0.00 | 0.05 | 0.00 | 87 | 1017.5 |
| 20260901003305 | 72 | 166 | 0.0 | 0.0 | 0.00 | 0.05 | 0.00 | 87 | 1017.4 |
| 20260901001152 | 72 | 123 | 0.0 | 0.0 | 0.00 | 0.06 | 0.00 | 87 | 1017.3 |
| 20260831235041 | 72 | 165 | 0.0 | 0.0 | 0.00 | 0.06 | 0.00 | 87 | 1017.3 |
| 20260831232916 | 72 | 165 | 0.0 | 0.0 | 0.00 | 0.06 | 0.00 | 87 | 1017.5 |
| 20260831231856 | 72 | 165 | 0.0 | 0.0 | 0.00 | 0.06 | 0.00 | 87 | 1017.5 |
| 20260831230822 | 73 | 165 | 0.0 | 0.0 | 0.00 | 0.06 | 0.00 | 87 | 1017.6 |
| 20260831225843 | 73 | 165 | 0.0 | 0.0 | 0.00 | 0.06 | 0.00 | 87 | 1017.6 |
| 20260831224902 | 73 | 165 | 0.0 | 0.0 | 0.00 | 0.06 | 0.00 | 86 | 1017.7 |
| 20260831223852 | 73 | 165 | 0.0 | 0.0 | 0.00 | 0.06 | 0.00 | 85 | 1017.6 |
| 20260831222912 | 74 | 165 | 0.0 | 0.0 | 0.00 | 0.06 | 0.00 | 85 | 1017.7 |
| 20260831220748 | 74 | 133 | 0.0 | 0.0 | 0.00 | 0.06 | 0.00 | 84 | 1017.7 |
| 20260831215810 | 74 | 132 | 0.0 | 0.0 | 0.00 | 0.06 | 0.00 | 82 | 1017.7 |
| 20260831214757 | 75 | 121 | 0.0 | 0.0 | 0.00 | 0.06 | 0.00 | 81 | 1017.8 |
| 20260831213734 | 75 | 120 | 0.0 | 0.0 | 0.00 | 0.06 | 0.00 | 80 | 1017.7 |
| 20260831212735 | 75 | 132 | 0.0 | 0.0 | 0.00 | 0.06 | 0.00 | 79 | 1017.7 |
| 20260831211747 | 76 | 86 | 0.0 | 0.0 | 0.00 | 0.06 | 0.00 | 79 | 1017.6 |
| 20260831205624 | 77 | 86 | 0.0 | 0.0 | 0.00 | 0.06 | 0.00 | 77 | 1017.7 |
| 20260831204635 | 77 | 54 | 0.0 | 2.0 | 0.00 | 0.06 | 0.00 | 75 | 1017.7 |
| 20260831203621 | 77 | 110 | 0.0 | 0.0 | 0.00 | 0.06 | 0.00 | 75 | 1017.6 |
| 20260831202635 | 78 | 354 | 0.0 | 0.0 | 0.00 | 0.06 | 0.00 | 75 | 1017.7 |
| 20260831201628 | 78 | 354 | 0.0 | 0.0 | 0.00 | 0.06 | 0.00 | 75 | 1017.8 |
| 20260831200651 | 78 | 354 | 0.0 | 0.0 | 0.00 | 0.06 | 0.00 | 74 | 1017.9 |
| 20260831195712 | 79 | 354 | 0.0 | 0.0 | 0.00 | 0.06 | 0.00 | 71 | 1018.1 |
| 20260831194653 | 79 | 218 | 0.0 | 2.0 | 0.00 | 0.06 | 0.00 | 69 | 1018.1 |
| 20260831193642 | 80 | 155 | 0.0 | 0.0 | 0.00 | 0.06 | 0.00 | 69 | 1018.1 |
| 20260831192656 | 80 | 150 | 0.0 | 0.0 | 0.00 | 0.06 | 0.00 | 67 | 1018.1 |
| 20260831191627 | 81 | 78 | 0.0 | 7.0 | 0.00 | 0.06 | 0.00 | 66 | 1018.4 |
| 20260831190640 | 81 | 104 | 0.0 | 2.0 | 0.00 | 0.06 | 0.00 | 67 | 1018.6 |
| 20260831185645 | 82 | 122 | 0.0 | 1.0 | 0.00 | 0.06 | 0.00 | 66 | 1018.5 |
| 20260831184645 | 81 | 57 | 0.0 | 2.0 | 0.00 | 0.06 | 0.00 | 64 | 1018.4 |
| 20260831183649 | 81 | 340 | 0.0 | 3.0 | 0.00 | 0.06 | 0.00 | 64 | 1018.6 |
| 20260831182629 | 81 | 349 | 0.0 | 3.0 | 0.00 | 0.06 | 0.00 | 61 | 1018.8 |
| 20260831181605 | 79 | 235 | 0.0 | 2.0 | 0.00 | 0.06 | 0.00 | 60 | 1018.9 |
| 20260831180543 | 79 | 197 | 0.0 | 3.0 | 0.00 | 0.06 | 0.00 | 59 | 1019.1 |
| 20260831175521 | 80 | 349 | 0.0 | 4.0 | 0.00 | 0.06 | 0.00 | 61 | 1019.2 |
| 20260831174541 | 80 | 110 | 0.0 | 0.0 | 0.00 | 0.06 | 0.00 | 62 | 1019.2 |
| 20260831173534 | 80 | 89 | 0.0 | 1.0 | 0.00 | 0.06 | 0.00 | 61 | 1019.1 |
| 20260831172516 | 79 | 89 | 0.0 | 5.0 | 0.00 | 0.06 | 0.00 | 60 | 1019.0 |
| 20260831170340 | 79 | 132 | 0.0 | 0.0 | 0.00 | 0.06 | 0.00 | 65 | 1019.1 |
| 20260831165400 | 79 | 103 | 0.0 | 5.0 | 0.00 | 0.06 | 0.00 | 64 | 1019.1 |
| 20260831164415 | 78 | 181 | 1.0 | 5.0 | 0.00 | 0.06 | 0.00 | 66 | 1019.2 |
| 20260831163436 | 79 | 287 | 0.0 | 4.0 | 0.00 | 0.06 | 0.00 | 65 | 1019.4 |
| 20260831162439 | 79 | 118 | 0.0 | 5.0 | 0.00 | 0.06 | 0.00 | 63 | 1019.5 |
| 20260831161415 | 79 | 355 | 0.0 | 5.0 | 0.00 | 0.06 | 0.00 | 64 | 1019.5 |
| 20260831160437 | 79 | 265 | 0.0 | 2.0 | 0.00 | 0.06 | 0.00 | 67 | 1019.5 |
| 20260831155405 | 78 | 107 | 0.0 | 2.0 | 0.00 | 0.06 | 0.00 | 65 | 1019.4 |
| 20260831154347 | 77 | 84 | 0.0 | 2.0 | 0.00 | 0.06 | 0.00 | 68 | 1019.5 |
| 20260831153320 | 77 | 105 | 0.0 | 2.0 | 0.00 | 0.06 | 0.00 | 67 | 1019.6 |
| 20260831152323 | 78 | 129 | 0.0 | 5.0 | 0.00 | 0.06 | 0.00 | 69 | 1019.5 |
| 20260831151341 | 79 | 111 | 0.0 | 5.0 | 0.00 | 0.06 | 0.00 | 68 | 1019.5 |
| 20260831150330 | 79 | 14 | 0.0 | 2.0 | 0.00 | 0.06 | 0.00 | 67 | 1019.5 |
| 20260831145327 | 77 | 154 | 0.0 | 2.0 | 0.00 | 0.06 | 0.00 | 61 | 1019.5 |
| 20260831143229 | 77 | 190 | 0.0 | 0.0 | 0.00 | 0.06 | 0.00 | 72 | 1019.5 |
| 20260831142240 | 76 | 263 | 1.0 | 4.0 | 0.00 | 0.06 | 0.00 | 73 | 1019.4 |
| 20260831140120 | 75 | 33 | 0.0 | 2.0 | 0.00 | 0.06 | 0.00 | 77 | 1019.3 |
| 20260831135058 | 74 | 235 | 0.0 | 1.0 | 0.00 | 0.06 | 0.00 | 80 | 1019.3 |
| 20260831134106 | 74 | 160 | 0.0 | 3.0 | 0.00 | 0.06 | 0.00 | 80 | 1019.3 |
| 20260831133046 | 74 | 200 | 0.0 | 2.0 | 0.00 | 0.06 | 0.00 | 83 | 1019.3 |
| 20260831132052 | 72 | 305 | 0.0 | 4.0 | 0.00 | 0.06 | 0.00 | 84 | 1019.3 |
| 20260831131025 | 72 | 82 | 0.0 | 1.0 | 0.00 | 0.06 | 0.00 | 88 | 1019.1 |
| 20260831130002 | 70 | 153 | 0.0 | 0.0 | 0.00 | 0.06 | 0.00 | 89 | 1019.1 |
| 20260831125000 | 70 | 183 | 0.0 | 0.0 | 0.00 | 0.06 | 0.00 | 90 | 1019.3 |
| 20260831123942 | 70 | 183 | 0.0 | 0.0 | 0.00 | 0.06 | 0.00 | 90 | 1019.2 |